This is the latest recevied weather packets stored in our database for station/object KC8UZG. If no packets are shown the sender has not sent any weather packets the latest 10 day(s).
| Time | Temp. | Humidity | Pressure | Rain* | Wind** | Luminosity | Snow |
|---|---|---|---|---|---|---|---|
| 1777976137 | 12.22° C | 99% | - | 3.3 mm | - | 0 W/m² | - |
| 1777975518 | 12.78° C | 99% | - | 4.32 mm | - | 0 W/m² | - |
| 1777974923 | 12.78° C | 99% | - | 4.83 mm | - | 0 W/m² | - |
| 1777974328 | 12.78° C | 99% | - | 5.08 mm | - | 0 W/m² | - |
| 1777973734 | 12.78° C | 99% | 1007.3 hPa | 4.57 mm | - | 0 W/m² | - |
| 1777973140 | 12.78° C | 99% | 1007.7 hPa | 4.06 mm | - | 0 W/m² | - |
| 1777972519 | 13.33° C | 99% | - | 3.05 mm | - | 0 W/m² | - |
| 1777971926 | 13.33° C | 99% | 1007 hPa | 2.03 mm | - | 0 W/m² | - |
| 1777971331 | 13.33° C | 99% | 1007 hPa | 1.52 mm | - | 0 W/m² | - |
| 1777970737 | 13.89° C | 98% | - | 0.76 mm | - | 0 W/m² | - |
| 1777970116 | 14.44° C | 94% | - | 0.51 mm | - | 0 W/m² | - |
| 1777969523 | 14.44° C | 91% | - | 0 mm | - | 0 W/m² | - |
| 1777968929 | 15° C | 88% | - | 0 mm | - | 0 W/m² | - |
| 1777968335 | 15.56° C | 86% | - | 0 mm | - | 0 W/m² | - |
| 1777967741 | 15.56° C | 83% | - | 0 mm | - | 0 W/m² | - |
| 1777967119 | 16.11° C | 81% | - | 0 mm | - | 0 W/m² | - |
| 1777966526 | 16.67° C | 80% | - | 0 mm | - | 0 W/m² | - |
| 1777965931 | 17.22° C | 76% | - | 0 mm | - | 0 W/m² | - |
| 1777965337 | 18.33° C | 70% | - | 0 mm | - | 0 W/m² | - |
| 1777964716 | 18.89° C | 68% | 1005.6 hPa | 0 mm | - | 0 W/m² | - |
| 1777964122 | 18.89° C | 68% | - | 0 mm | - | 0 W/m² | - |
| 1777963528 | 18.89° C | 67% | - | 0 mm | - | 0 W/m² | - |
| 1777962934 | 18.89° C | 67% | - | 0 mm | - | 0 W/m² | - |
| 1777962340 | 18.89° C | 68% | - | 0 mm | - | 0 W/m² | - |
| 1777961718 | 18.89° C | 68% | - | 0 mm | - | 0 W/m² | - |
* Rain latest hour (hover to see other rain measurements)
** Current wind speed in m/s (hover to see current wind gust speed)